createdAt,value
2019-01-25T00:00:35.196Z,-2.00
2019-01-25T00:01:11.895Z,-2.00
2019-01-25T00:01:44.930Z,-2.06
2019-01-25T00:02:17.904Z,-2.00
2019-01-25T00:02:50.944Z,-2.06
2019-01-25T00:03:24.144Z,-2.06
2019-01-25T00:03:57.266Z,-2.06
2019-01-25T00:04:30.373Z,-2.06
2019-01-25T00:05:05.411Z,-2.06
2019-01-25T00:05:38.681Z,-2.06
2019-01-25T00:06:11.746Z,-2.06
2019-01-25T00:06:44.898Z,-2.06
2019-01-25T00:07:17.956Z,-2.06
2019-01-25T00:07:51.148Z,-2.06
2019-01-25T00:08:24.172Z,-2.12
2019-01-25T00:08:57.277Z,-2.06
2019-01-25T00:09:30.295Z,-2.06
2019-01-25T00:10:05.576Z,-2.06
2019-01-25T00:10:38.692Z,-2.06
2019-01-25T00:11:12.801Z,-2.06
2019-01-25T00:11:45.920Z,-2.12
2019-01-25T00:12:18.976Z,-2.06
2019-01-25T00:12:53.043Z,-2.12
2019-01-25T00:13:26.477Z,-2.12
2019-01-25T00:13:59.488Z,-2.12
2019-01-25T00:14:32.666Z,-2.12
2019-01-25T00:15:05.967Z,-2.12
2019-01-25T00:15:39.161Z,-2.12
2019-01-25T00:16:12.284Z,-2.12
2019-01-25T00:16:45.356Z,-2.12
2019-01-25T00:17:18.299Z,-2.12
2019-01-25T00:17:51.339Z,-2.12
2019-01-25T00:19:15.718Z,-2.19
2019-01-25T00:19:48.857Z,-2.19
2019-01-25T00:20:21.836Z,-2.19
2019-01-25T00:20:55.951Z,-2.19
2019-01-25T00:21:29.283Z,-2.19
2019-01-25T00:22:02.494Z,-2.19
2019-01-25T00:22:35.616Z,-2.19
2019-01-25T00:23:08.755Z,-2.19
2019-01-25T00:23:41.859Z,-2.19
2019-01-25T00:24:14.936Z,-2.19
2019-01-25T00:24:47.915Z,-2.19
2019-01-25T00:25:20.981Z,-2.19
2019-01-25T00:25:54.085Z,-2.19
2019-01-25T00:26:27.180Z,-2.19
2019-01-25T00:27:00.309Z,-2.19
2019-01-25T00:27:34.916Z,-2.25
2019-01-25T00:28:08.175Z,-2.19
2019-01-25T00:28:41.323Z,-2.19
2019-01-25T00:29:14.477Z,-2.19
2019-01-25T00:29:47.559Z,-2.19
2019-01-25T00:30:20.779Z,-2.19
2019-01-25T00:30:53.995Z,-2.19
2019-01-25T00:31:27.111Z,-2.19
2019-01-25T00:32:00.175Z,-2.19
2019-01-25T00:32:33.269Z,-2.19
2019-01-25T00:33:06.374Z,-2.19
2019-01-25T00:33:39.459Z,-2.19
2019-01-25T00:34:12.461Z,-2.19
2019-01-25T00:34:45.541Z,-2.19
2019-01-25T00:35:18.629Z,-2.19
2019-01-25T00:35:51.735Z,-2.19
2019-01-25T00:36:24.893Z,-2.19
2019-01-25T00:36:58.153Z,-2.19
2019-01-25T00:37:32.228Z,-2.19
2019-01-25T00:38:05.408Z,-2.19
2019-01-25T00:38:38.575Z,-2.19
2019-01-25T00:39:12.755Z,-2.19
2019-01-25T00:39:45.745Z,-2.19
2019-01-25T00:40:19.269Z,-2.19
2019-01-25T00:40:52.381Z,-2.19
2019-01-25T00:41:25.968Z,-2.19
2019-01-25T00:41:59.615Z,-2.19
2019-01-25T00:42:33.465Z,-2.19
2019-01-25T00:43:06.611Z,-2.19
2019-01-25T00:43:39.707Z,-2.19
2019-01-25T00:44:12.863Z,-2.19
2019-01-25T00:44:45.998Z,-2.19
2019-01-25T00:45:19.225Z,-2.19
2019-01-25T00:45:52.315Z,-2.19
2019-01-25T00:46:25.406Z,-2.19
2019-01-25T00:46:58.623Z,-2.19
2019-01-25T00:47:31.627Z,-2.19
2019-01-25T00:48:05.195Z,-2.19
2019-01-25T00:48:38.267Z,-2.19
2019-01-25T00:49:11.347Z,-2.19
2019-01-25T00:49:44.620Z,-2.19
2019-01-25T00:50:18.562Z,-2.19
2019-01-25T00:50:51.671Z,-2.19
2019-01-25T00:51:24.769Z,-2.19
2019-01-25T00:51:57.843Z,-2.12
2019-01-25T00:52:31.039Z,-2.12
2019-01-25T00:53:04.649Z,-2.12
2019-01-25T00:53:37.725Z,-2.12
2019-01-25T00:54:10.931Z,-2.12
2019-01-25T00:54:43.997Z,-2.12
2019-01-25T00:55:17.261Z,-2.12
2019-01-25T00:55:50.447Z,-2.19
2019-01-25T00:56:23.412Z,-2.12
2019-01-25T00:56:56.443Z,-2.12
2019-01-25T00:57:29.559Z,-2.19
2019-01-25T00:58:03.056Z,-2.12
2019-01-25T00:58:36.371Z,-2.19
2019-01-25T00:59:09.345Z,-2.12
2019-01-25T00:59:42.405Z,-2.19
2019-01-25T01:00:22.169Z,-2.12
2019-01-25T01:00:56.388Z,-2.12
2019-01-25T01:01:29.734Z,-2.12
2019-01-25T01:02:03.056Z,-2.12
2019-01-25T01:02:36.199Z,-2.12
2019-01-25T01:03:09.383Z,-2.12
2019-01-25T01:03:43.140Z,-2.12
2019-01-25T01:04:16.213Z,-2.12
2019-01-25T01:04:49.385Z,-2.19
2019-01-25T01:05:22.687Z,-2.19
2019-01-25T01:05:56.771Z,-2.19
2019-01-25T01:06:32.389Z,-2.19
2019-01-25T01:07:05.691Z,-2.19
2019-01-25T01:07:38.943Z,-2.19
2019-01-25T01:08:12.047Z,-2.19
2019-01-25T01:08:45.142Z,-2.19
2019-01-25T01:09:18.002Z,-2.19
2019-01-25T01:09:51.091Z,-2.19
2019-01-25T01:10:24.159Z,-2.19
2019-01-25T01:10:57.265Z,-2.19
2019-01-25T01:11:30.350Z,-2.19
2019-01-25T01:12:03.689Z,-2.12
2019-01-25T01:12:36.791Z,-2.12
2019-01-25T01:13:11.547Z,-2.12
2019-01-25T01:13:46.395Z,-2.12
2019-01-25T01:14:19.468Z,-2.12
2019-01-25T01:14:52.549Z,-2.12
2019-01-25T01:15:25.642Z,-2.19
2019-01-25T01:15:58.743Z,-2.19
2019-01-25T01:16:31.847Z,-2.19
2019-01-25T01:17:05.094Z,-2.19
2019-01-25T01:17:38.169Z,-2.19
2019-01-25T01:18:11.223Z,-2.19
2019-01-25T01:18:44.410Z,-2.25
2019-01-25T01:19:17.524Z,-2.25
2019-01-25T01:19:50.586Z,-2.25
2019-01-25T01:20:23.796Z,-2.25
2019-01-25T01:20:56.836Z,-2.25
2019-01-25T01:21:31.025Z,-2.25
2019-01-25T01:22:04.199Z,-2.25
2019-01-25T01:22:37.265Z,-2.25
2019-01-25T01:23:10.329Z,-2.25
2019-01-25T01:23:44.484Z,-2.25
2019-01-25T01:24:17.566Z,-2.25
2019-01-25T01:24:50.662Z,-2.25
2019-01-25T01:25:23.645Z,-2.25
2019-01-25T01:25:56.715Z,-2.25
2019-01-25T01:26:29.867Z,-2.25
2019-01-25T01:27:03.022Z,-2.25
2019-01-25T01:27:36.123Z,-2.25
2019-01-25T01:28:09.345Z,-2.31
2019-01-25T01:28:42.339Z,-2.31
2019-01-25T01:29:17.066Z,-2.31
2019-01-25T01:29:50.176Z,-2.31
2019-01-25T01:30:24.008Z,-2.31
2019-01-25T01:30:57.181Z,-2.25
2019-01-25T01:31:30.262Z,-2.25
2019-01-25T01:32:04.824Z,-2.25
2019-01-25T01:32:37.946Z,-2.25
2019-01-25T01:33:12.345Z,-2.25
2019-01-25T01:33:45.431Z,-2.25
2019-01-25T01:34:18.466Z,-2.25
2019-01-25T01:34:52.432Z,-2.25
2019-01-25T01:35:25.447Z,-2.25
2019-01-25T01:35:58.555Z,-2.25
2019-01-25T01:36:31.683Z,-2.25
2019-01-25T01:37:04.835Z,-2.25
2019-01-25T01:37:37.869Z,-2.25
2019-01-25T01:38:10.919Z,-2.25
2019-01-25T01:38:44.037Z,-2.25
2019-01-25T01:39:17.101Z,-2.25
2019-01-25T01:39:50.209Z,-2.25
2019-01-25T01:40:24.824Z,-2.25
2019-01-25T01:40:57.726Z,-2.19
2019-01-25T01:41:30.842Z,-2.19
2019-01-25T01:42:03.971Z,-2.19
2019-01-25T01:42:37.060Z,-2.19
2019-01-25T01:43:10.102Z,-2.19
2019-01-25T01:43:43.212Z,-2.19
2019-01-25T01:44:16.337Z,-2.19
2019-01-25T01:44:49.308Z,-2.19
2019-01-25T01:45:22.664Z,-2.19
2019-01-25T01:45:55.750Z,-2.19
2019-01-25T01:46:29.796Z,-2.12
2019-01-25T01:47:02.862Z,-2.12
2019-01-25T01:47:35.998Z,-2.12
2019-01-25T01:48:09.161Z,-2.12
2019-01-25T01:48:42.205Z,-2.12
2019-01-25T01:49:15.322Z,-2.19
2019-01-25T01:49:48.454Z,-2.19
2019-01-25T01:50:21.553Z,-2.19
2019-01-25T01:50:54.579Z,-2.19
2019-01-25T01:51:29.188Z,-2.19
2019-01-25T01:52:02.220Z,-2.19
2019-01-25T01:52:35.362Z,-2.19
2019-01-25T01:53:08.410Z,-2.19
2019-01-25T01:53:41.371Z,-2.19
2019-01-25T01:54:14.381Z,-2.19
2019-01-25T01:54:47.436Z,-2.19
2019-01-25T01:55:20.593Z,-2.19
2019-01-25T01:55:53.946Z,-2.19
2019-01-25T01:56:26.984Z,-2.19
2019-01-25T01:56:59.976Z,-2.19
2019-01-25T01:57:33.108Z,-2.19
2019-01-25T01:58:06.185Z,-2.19
2019-01-25T01:58:39.184Z,-2.12
2019-01-25T01:59:12.346Z,-2.12
2019-01-25T01:59:45.356Z,-2.12
2019-01-25T02:00:22.418Z,-2.12
2019-01-25T02:00:55.433Z,-2.12
2019-01-25T02:01:28.640Z,-2.12
2019-01-25T02:02:01.780Z,-2.19
2019-01-25T02:02:35.744Z,-2.19
2019-01-25T02:03:08.777Z,-2.19
2019-01-25T02:03:41.955Z,-2.19
2019-01-25T02:04:14.971Z,-2.19
2019-01-25T02:04:48.054Z,-2.25
2019-01-25T02:05:21.064Z,-2.31
2019-01-25T02:05:55.056Z,-2.31
2019-01-25T02:06:28.124Z,-2.37
2019-01-25T02:07:01.330Z,-2.37
2019-01-25T02:07:34.418Z,-2.37
2019-01-25T02:08:07.604Z,-2.37
2019-01-25T02:08:40.740Z,-2.37
2019-01-25T02:09:13.808Z,-2.37
2019-01-25T02:09:46.805Z,-2.37
2019-01-25T02:10:29.672Z,-2.31
2019-01-25T02:11:00.310Z,-2.37
2019-01-25T02:11:33.416Z,-2.37
2019-01-25T02:12:06.460Z,-2.37
2019-01-25T02:12:39.577Z,-2.37
2019-01-25T02:13:12.605Z,-2.37
2019-01-25T02:13:45.656Z,-2.37
2019-01-25T02:14:18.726Z,-2.37
2019-01-25T02:14:51.841Z,-2.37
2019-01-25T02:15:25.258Z,-2.37
2019-01-25T02:15:58.448Z,-2.37
2019-01-25T02:16:31.624Z,-2.37
2019-01-25T02:17:04.844Z,-2.37
2019-01-25T02:17:38.090Z,-2.37
2019-01-25T02:18:11.216Z,-2.31
2019-01-25T02:18:44.442Z,-2.31
2019-01-25T02:19:17.574Z,-2.31
2019-01-25T02:19:50.643Z,-2.31
2019-01-25T02:20:27.202Z,-2.25
2019-01-25T02:21:01.821Z,-2.25
2019-01-25T02:21:34.918Z,-2.25
2019-01-25T02:22:08.100Z,-2.25
2019-01-25T02:22:41.230Z,-2.25
2019-01-25T02:23:14.416Z,-2.25
2019-01-25T02:23:47.524Z,-2.25
2019-01-25T02:24:22.068Z,-2.25
2019-01-25T02:24:55.060Z,-2.25
2019-01-25T02:25:29.356Z,-2.25
2019-01-25T02:26:02.514Z,-2.25
2019-01-25T02:26:36.758Z,-2.25
2019-01-25T02:27:09.862Z,-2.19
2019-01-25T02:27:43.098Z,-2.25
2019-01-25T02:28:16.152Z,-2.25
2019-01-25T02:28:49.151Z,-2.25
2019-01-25T02:29:22.158Z,-2.25
2019-01-25T02:29:55.122Z,-2.25
2019-01-25T02:30:28.225Z,-2.25
2019-01-25T02:31:01.267Z,-2.25
2019-01-25T02:31:34.293Z,-2.25
2019-01-25T02:32:07.410Z,-2.25
2019-01-25T02:32:40.611Z,-2.25
2019-01-25T02:33:13.830Z,-2.25
2019-01-25T02:33:46.903Z,-2.31
2019-01-25T02:34:20.012Z,-2.31
2019-01-25T02:34:53.124Z,-2.31
2019-01-25T02:35:26.322Z,-2.37
2019-01-25T02:36:00.514Z,-2.37
2019-01-25T02:36:33.778Z,-2.37
2019-01-25T02:37:06.990Z,-2.44
2019-01-25T02:37:41.833Z,-2.44
2019-01-25T02:38:14.982Z,-2.44
2019-01-25T02:38:48.250Z,-2.50
2019-01-25T02:39:21.338Z,-2.50
2019-01-25T02:39:54.400Z,-2.50
2019-01-25T02:40:38.376Z,-2.50
2019-01-25T02:41:04.352Z,-2.56
2019-01-25T02:41:37.426Z,-2.56
2019-01-25T02:42:10.519Z,-2.56
2019-01-25T02:42:43.907Z,-2.50
2019-01-25T02:43:17.037Z,-2.50
2019-01-25T02:43:50.219Z,-2.50
2019-01-25T02:44:23.262Z,-2.50
2019-01-25T02:44:56.191Z,-2.44
2019-01-25T02:45:29.291Z,-2.44
2019-01-25T02:46:02.456Z,-2.44
2019-01-25T02:46:35.560Z,-2.44
2019-01-25T02:47:08.562Z,-2.44
2019-01-25T02:47:41.812Z,-2.37
2019-01-25T02:48:15.016Z,-2.37
2019-01-25T02:48:48.089Z,-2.37
2019-01-25T02:49:21.035Z,-2.37
2019-01-25T02:49:54.080Z,-2.37
2019-01-25T02:50:27.046Z,-2.37
2019-01-25T02:51:00.195Z,-2.37
2019-01-25T02:51:33.138Z,-2.37
2019-01-25T02:52:06.146Z,-2.37
2019-01-25T02:52:39.247Z,-2.37
2019-01-25T02:53:12.080Z,-2.37
2019-01-25T02:53:45.082Z,-2.37
2019-01-25T02:54:18.133Z,-2.31
2019-01-25T02:54:51.279Z,-2.37
2019-01-25T02:55:24.210Z,-2.37
2019-01-25T02:55:57.280Z,-2.37
2019-01-25T02:56:30.311Z,-2.37
2019-01-25T02:57:03.458Z,-2.37
2019-01-25T02:57:36.511Z,-2.37
2019-01-25T02:58:09.678Z,-2.37
2019-01-25T02:58:42.853Z,-2.37
2019-01-25T02:59:15.938Z,-2.37
2019-01-25T02:59:48.857Z,-2.37
2019-01-25T03:00:24.816Z,-2.37
2019-01-25T03:00:57.831Z,-2.37
2019-01-25T03:01:30.880Z,-2.44
2019-01-25T03:02:05.131Z,-2.44
2019-01-25T03:02:38.186Z,-2.50
2019-01-25T03:03:11.656Z,-2.50
2019-01-25T03:03:45.902Z,-2.50
2019-01-25T03:04:18.826Z,-2.50
2019-01-25T03:04:51.862Z,-2.56
2019-01-25T03:05:25.400Z,-2.56
2019-01-25T03:05:58.472Z,-2.56
2019-01-25T03:06:31.483Z,-2.56
2019-01-25T03:07:05.061Z,-2.56
2019-01-25T03:07:38.148Z,-2.56
2019-01-25T03:08:12.845Z,-2.56
2019-01-25T03:08:46.722Z,-2.56
2019-01-25T03:09:20.025Z,-2.50
2019-01-25T03:09:53.059Z,-2.50
2019-01-25T03:10:29.182Z,-2.50
2019-01-25T03:11:01.389Z,-2.50
2019-01-25T03:11:34.475Z,-2.44
2019-01-25T03:12:07.558Z,-2.44
2019-01-25T03:12:40.718Z,-2.44
2019-01-25T03:13:13.977Z,-2.44
2019-01-25T03:13:47.045Z,-2.50
2019-01-25T03:14:21.684Z,-2.50
2019-01-25T03:14:54.839Z,-2.50
2019-01-25T03:15:27.989Z,-2.56
2019-01-25T03:16:01.236Z,-2.56
2019-01-25T03:16:34.344Z,-2.56
2019-01-25T03:17:07.583Z,-2.56
2019-01-25T03:17:40.669Z,-2.56
2019-01-25T03:18:13.771Z,-2.56
2019-01-25T03:18:46.990Z,-2.56
2019-01-25T03:19:20.028Z,-2.62
2019-01-25T03:19:53.145Z,-2.62
2019-01-25T03:20:27.823Z,-2.62
2019-01-25T03:21:00.893Z,-2.62
2019-01-25T03:21:33.978Z,-2.62
2019-01-25T03:22:07.271Z,-2.69
2019-01-25T03:22:40.630Z,-2.62
2019-01-25T03:23:13.716Z,-2.62
2019-01-25T03:23:48.142Z,-2.62
2019-01-25T03:24:21.258Z,-2.62
2019-01-25T03:24:54.339Z,-2.56
2019-01-25T03:25:27.513Z,-2.56
2019-01-25T03:26:00.619Z,-2.50
2019-01-25T03:26:33.631Z,-2.50
2019-01-25T03:27:06.810Z,-2.50
2019-01-25T03:27:39.959Z,-2.50
2019-01-25T03:28:13.201Z,-2.50
2019-01-25T03:28:46.251Z,-2.50
2019-01-25T03:29:19.289Z,-2.50
2019-01-25T03:29:52.383Z,-2.44
2019-01-25T03:30:26.172Z,-2.44
2019-01-25T03:30:59.267Z,-2.44
2019-01-25T03:31:32.370Z,-2.44
2019-01-25T03:32:05.463Z,-2.44
2019-01-25T03:32:39.514Z,-2.37
2019-01-25T03:33:12.596Z,-2.37
2019-01-25T03:33:45.555Z,-2.37
2019-01-25T03:34:18.631Z,-2.37
2019-01-25T03:34:51.787Z,-2.31
2019-01-25T03:35:25.721Z,-2.31
2019-01-25T03:35:58.921Z,-2.31
2019-01-25T03:36:32.061Z,-2.31
2019-01-25T03:37:05.165Z,-2.31
2019-01-25T03:37:38.225Z,-2.31
2019-01-25T03:38:11.388Z,-2.31
2019-01-25T03:38:44.730Z,-2.37
2019-01-25T03:39:17.941Z,-2.31
2019-01-25T03:39:50.903Z,-2.31
2019-01-25T03:40:26.856Z,-2.31
2019-01-25T03:40:59.977Z,-2.31
2019-01-25T03:41:34.749Z,-2.31
2019-01-25T03:42:07.825Z,-2.31
2019-01-25T03:42:40.921Z,-2.31
2019-01-25T03:43:14.101Z,-2.31
2019-01-25T03:43:47.243Z,-2.37
2019-01-25T03:44:21.559Z,-2.37
2019-01-25T03:44:54.683Z,-2.37
2019-01-25T03:45:28.089Z,-2.37
2019-01-25T03:46:03.452Z,-2.37
2019-01-25T03:46:36.527Z,-2.37
2019-01-25T03:47:09.611Z,-2.37
2019-01-25T03:47:42.797Z,-2.37
2019-01-25T03:48:15.983Z,-2.37
2019-01-25T03:48:49.103Z,-2.37
2019-01-25T03:49:22.270Z,-2.37
2019-01-25T03:49:55.347Z,-2.37
2019-01-25T03:50:29.721Z,-2.37
2019-01-25T03:51:02.755Z,-2.37
2019-01-25T03:51:35.719Z,-2.37
2019-01-25T03:52:08.889Z,-2.37
2019-01-25T03:52:42.095Z,-2.44
2019-01-25T03:53:15.191Z,-2.44
2019-01-25T03:53:49.199Z,-2.44
2019-01-25T03:54:22.289Z,-2.44
2019-01-25T03:54:55.398Z,-2.44
2019-01-25T03:55:28.499Z,-2.37
2019-01-25T03:56:01.617Z,-2.37
2019-01-25T03:56:34.555Z,-2.37
2019-01-25T03:57:07.644Z,-2.37
2019-01-25T03:57:40.885Z,-2.37
2019-01-25T03:58:13.961Z,-2.37
2019-01-25T03:58:47.042Z,-2.37
2019-01-25T03:59:20.215Z,-2.37
2019-01-25T03:59:53.315Z,-2.44
2019-01-25T04:00:28.462Z,-2.44
2019-01-25T04:01:01.554Z,-2.44
2019-01-25T04:01:34.519Z,-2.44
2019-01-25T04:02:07.758Z,-2.44
2019-01-25T04:02:40.830Z,-2.44
2019-01-25T04:03:13.895Z,-2.37
2019-01-25T04:03:47.036Z,-2.44
2019-01-25T04:04:20.130Z,-2.37
2019-01-25T04:04:53.186Z,-2.37
2019-01-25T04:05:26.369Z,-2.44
2019-01-25T04:05:59.452Z,-2.44
2019-01-25T04:06:32.652Z,-2.44
2019-01-25T04:07:07.354Z,-2.44
2019-01-25T04:07:40.674Z,-2.44
2019-01-25T04:08:13.772Z,-2.44
2019-01-25T04:08:46.727Z,-2.44
2019-01-25T04:09:19.844Z,-2.44
2019-01-25T04:09:53.203Z,-2.44
2019-01-25T04:10:27.671Z,-2.44
2019-01-25T04:11:03.618Z,-2.44
2019-01-25T04:11:35.750Z,-2.37
2019-01-25T04:12:08.835Z,-2.37
2019-01-25T04:12:42.035Z,-2.37
2019-01-25T04:13:15.227Z,-2.37
2019-01-25T04:13:48.203Z,-2.37
2019-01-25T04:14:21.360Z,-2.37
2019-01-25T04:14:54.504Z,-2.37
2019-01-25T04:15:30.832Z,-2.37
2019-01-25T04:16:04.418Z,-2.44
2019-01-25T04:16:37.413Z,-2.37
2019-01-25T04:17:10.490Z,-2.37
2019-01-25T04:17:43.520Z,-2.37
2019-01-25T04:18:16.708Z,-2.37
2019-01-25T04:18:49.725Z,-2.37
2019-01-25T04:19:22.855Z,-2.37
2019-01-25T04:19:56.221Z,-2.37
2019-01-25T04:20:29.666Z,-2.37
2019-01-25T04:21:02.645Z,-2.37
2019-01-25T04:21:35.808Z,-2.37
2019-01-25T04:22:10.464Z,-2.37
2019-01-25T04:22:43.659Z,-2.44
2019-01-25T04:23:16.708Z,-2.37
2019-01-25T04:23:49.819Z,-2.44
2019-01-25T04:24:22.949Z,-2.37
2019-01-25T04:24:56.047Z,-2.37
2019-01-25T04:25:29.104Z,-2.37
2019-01-25T04:26:03.366Z,-2.44
2019-01-25T04:26:36.483Z,-2.44
2019-01-25T04:27:09.556Z,-2.50
2019-01-25T04:27:42.712Z,-2.50
2019-01-25T04:28:15.584Z,-2.50
2019-01-25T04:28:48.615Z,-2.50
2019-01-25T04:29:21.730Z,-2.50
2019-01-25T04:29:54.772Z,-2.50
2019-01-25T04:30:29.955Z,-2.56
2019-01-25T04:31:04.644Z,-2.56
2019-01-25T04:31:37.770Z,-2.62
2019-01-25T04:32:10.970Z,-2.62
2019-01-25T04:32:44.308Z,-2.62
2019-01-25T04:33:17.441Z,-2.62
2019-01-25T04:33:50.508Z,-2.62
2019-01-25T04:34:23.507Z,-2.62
2019-01-25T04:34:56.592Z,-2.62
2019-01-25T04:35:29.570Z,-2.62
2019-01-25T04:36:03.153Z,-2.62
2019-01-25T04:36:36.374Z,-2.62
2019-01-25T04:37:09.437Z,-2.62
2019-01-25T04:37:42.530Z,-2.62
2019-01-25T04:38:15.833Z,-2.62
2019-01-25T04:38:48.891Z,-2.69
2019-01-25T04:39:22.005Z,-2.62
2019-01-25T04:39:55.116Z,-2.69
2019-01-25T04:40:28.289Z,-2.69
2019-01-25T04:41:02.798Z,-2.69
2019-01-25T04:41:36.136Z,-2.69
2019-01-25T04:42:09.224Z,-2.69
2019-01-25T04:42:42.201Z,-2.75
2019-01-25T04:43:15.316Z,-2.75
2019-01-25T04:43:48.365Z,-2.75
2019-01-25T04:44:21.427Z,-2.75
2019-01-25T04:44:54.423Z,-2.75
2019-01-25T04:45:27.525Z,-2.75
2019-01-25T04:46:01.534Z,-2.75
2019-01-25T04:46:34.596Z,-2.81
2019-01-25T04:47:07.738Z,-2.81
2019-01-25T04:47:40.924Z,-2.81
2019-01-25T04:48:15.036Z,-2.81
2019-01-25T04:48:48.024Z,-2.81
2019-01-25T04:49:21.013Z,-2.81
2019-01-25T04:49:54.446Z,-2.81
2019-01-25T04:50:27.666Z,-2.81
2019-01-25T04:51:06.773Z,-2.81
2019-01-25T04:51:39.920Z,-2.81
2019-01-25T04:52:13.585Z,-2.75
2019-01-25T04:52:46.814Z,-2.75
2019-01-25T04:53:19.912Z,-2.75
2019-01-25T04:53:52.882Z,-2.75
2019-01-25T04:54:26.990Z,-2.75
2019-01-25T04:55:17.556Z,-2.75
2019-01-25T04:55:50.520Z,-2.75
2019-01-25T04:56:23.650Z,-2.75
2019-01-25T04:56:56.721Z,-2.75
2019-01-25T04:57:29.796Z,-2.75
2019-01-25T04:58:12.456Z,-2.69
2019-01-25T04:58:45.530Z,-2.75
2019-01-25T04:59:18.489Z,-2.69
2019-01-25T04:59:51.587Z,-2.75
2019-01-25T05:00:24.744Z,-2.75
2019-01-25T05:01:06.638Z,-2.75
2019-01-25T05:01:39.792Z,-2.75
2019-01-25T05:02:12.966Z,-2.75
2019-01-25T05:02:57.839Z,-2.75
2019-01-25T05:03:31.359Z,-2.81
2019-01-25T05:04:04.607Z,-2.81
2019-01-25T05:04:37.944Z,-2.81
2019-01-25T05:05:11.123Z,-2.81
2019-01-25T05:05:45.523Z,-2.75
2019-01-25T05:06:18.925Z,-2.75
2019-01-25T05:06:51.903Z,-2.75
2019-01-25T05:07:24.925Z,-2.75
2019-01-25T05:08:09.181Z,-2.75
2019-01-25T05:08:42.320Z,-2.75
2019-01-25T05:09:15.431Z,-2.75
2019-01-25T05:09:48.740Z,-2.75
2019-01-25T05:10:21.729Z,-2.75
2019-01-25T05:10:54.807Z,-2.75
2019-01-25T05:11:27.880Z,-2.75
2019-01-25T05:12:00.948Z,-2.75
2019-01-25T05:12:34.028Z,-2.75
2019-01-25T05:13:07.162Z,-2.81
2019-01-25T05:13:40.175Z,-2.81
2019-01-25T05:14:13.357Z,-2.81
2019-01-25T05:14:46.347Z,-2.75
2019-01-25T05:15:19.494Z,-2.75
2019-01-25T05:15:53.531Z,-2.75
2019-01-25T05:16:26.610Z,-2.75
2019-01-25T05:16:59.624Z,-2.75
2019-01-25T05:17:32.735Z,-2.75
2019-01-25T05:18:05.824Z,-2.75
2019-01-25T05:18:38.872Z,-2.75
2019-01-25T05:19:11.848Z,-2.75
2019-01-25T05:19:44.882Z,-2.69
2019-01-25T05:20:17.894Z,-2.75
2019-01-25T05:20:51.035Z,-2.75
2019-01-25T05:21:24.406Z,-2.75
2019-01-25T05:21:57.460Z,-2.75
2019-01-25T05:22:30.641Z,-2.75
2019-01-25T05:23:05.327Z,-2.75
2019-01-25T05:23:38.328Z,-2.69
2019-01-25T05:24:11.965Z,-2.69
2019-01-25T05:24:44.947Z,-2.69
2019-01-25T05:25:22.775Z,-2.69
2019-01-25T05:25:55.665Z,-2.69
2019-01-25T05:26:28.834Z,-2.69
2019-01-25T05:27:01.812Z,-2.69
2019-01-25T05:27:34.884Z,-2.69
2019-01-25T05:28:14.001Z,-2.62
2019-01-25T05:28:48.047Z,-2.69
2019-01-25T05:29:25.076Z,-2.62
2019-01-25T05:29:58.135Z,-2.62
2019-01-25T05:30:32.851Z,-2.62
2019-01-25T05:31:06.869Z,-2.62
2019-01-25T05:31:39.914Z,-2.62
2019-01-25T05:32:12.981Z,-2.62
2019-01-25T05:32:46.189Z,-2.62
2019-01-25T05:33:20.429Z,-2.69
2019-01-25T05:33:55.567Z,-2.69
2019-01-25T05:34:28.659Z,-2.69
2019-01-25T05:35:01.845Z,-2.69
2019-01-25T05:35:35.684Z,-2.69
2019-01-25T05:36:08.780Z,-2.69
2019-01-25T05:36:41.817Z,-2.69
2019-01-25T05:37:15.012Z,-2.62
2019-01-25T05:37:48.099Z,-2.69
2019-01-25T05:38:21.306Z,-2.62
2019-01-25T05:38:54.231Z,-2.62
2019-01-25T05:39:27.287Z,-2.62
2019-01-25T05:40:00.246Z,-2.62
2019-01-25T05:40:33.278Z,-2.62
2019-01-25T05:41:06.239Z,-2.62
2019-01-25T05:41:39.425Z,-2.62
2019-01-25T05:42:13.466Z,-2.56
2019-01-25T05:42:46.506Z,-2.56
2019-01-25T05:43:19.851Z,-2.56
2019-01-25T05:43:52.800Z,-2.56
2019-01-25T05:44:25.893Z,-2.56
2019-01-25T05:45:00.730Z,-2.56
2019-01-25T05:45:36.885Z,-2.56
2019-01-25T05:46:10.044Z,-2.56
2019-01-25T05:46:43.058Z,-2.56
2019-01-25T05:47:16.322Z,-2.56
2019-01-25T05:47:49.414Z,-2.56
2019-01-25T05:48:28.684Z,-2.56
2019-01-25T05:49:01.632Z,-2.56
2019-01-25T05:49:35.747Z,-2.56
2019-01-25T05:50:09.123Z,-2.56
2019-01-25T05:50:42.519Z,-2.62
2019-01-25T05:51:15.809Z,-2.56
2019-01-25T05:51:50.214Z,-2.62
2019-01-25T05:52:23.274Z,-2.62
2019-01-25T05:52:56.439Z,-2.62
2019-01-25T05:53:29.609Z,-2.62
2019-01-25T05:54:03.778Z,-2.62
2019-01-25T05:54:36.716Z,-2.62
2019-01-25T05:55:15.938Z,-2.62
2019-01-25T05:55:49.929Z,-2.62
2019-01-25T05:56:24.477Z,-2.62
2019-01-25T05:56:57.596Z,-2.56
2019-01-25T05:57:30.564Z,-2.62
2019-01-25T05:58:05.160Z,-2.62
2019-01-25T05:58:38.098Z,-2.62
2019-01-25T05:59:11.207Z,-2.56
2019-01-25T05:59:44.141Z,-2.62
2019-01-25T06:00:26.015Z,-2.56
2019-01-25T06:00:58.976Z,-2.56
2019-01-25T06:01:32.134Z,-2.56
2019-01-25T06:02:05.266Z,-2.56
2019-01-25T06:02:38.366Z,-2.56
2019-01-25T06:03:13.786Z,-2.56
2019-01-25T06:03:46.898Z,-2.56
2019-01-25T06:04:20.040Z,-2.56
2019-01-25T06:04:53.064Z,-2.56
2019-01-25T06:05:26.130Z,-2.56
2019-01-25T06:06:04.713Z,-2.56
2019-01-25T06:06:37.748Z,-2.56
2019-01-25T06:07:10.780Z,-2.56
2019-01-25T06:07:45.512Z,-2.56
2019-01-25T06:08:32.569Z,-2.50
2019-01-25T06:09:07.018Z,-2.50
2019-01-25T06:09:40.186Z,-2.50
2019-01-25T06:10:14.430Z,-2.50
2019-01-25T06:10:47.391Z,-2.50
2019-01-25T06:11:20.449Z,-2.50
2019-01-25T06:11:53.550Z,-2.50
2019-01-25T06:12:26.748Z,-2.50
2019-01-25T06:13:00.752Z,-2.50
2019-01-25T06:13:33.808Z,-2.50
2019-01-25T06:14:08.816Z,-2.50
2019-01-25T06:14:41.859Z,-2.50
2019-01-25T06:15:14.994Z,-2.50
2019-01-25T06:15:48.806Z,-2.50
2019-01-25T06:16:22.431Z,-2.50
2019-01-25T06:16:55.552Z,-2.50
2019-01-25T06:17:28.784Z,-2.50
2019-01-25T06:18:02.657Z,-2.50
2019-01-25T06:18:35.900Z,-2.50
2019-01-25T06:19:09.046Z,-2.50
2019-01-25T06:19:42.181Z,-2.50
2019-01-25T06:20:15.729Z,-2.50
2019-01-25T06:20:52.270Z,-2.50
2019-01-25T06:21:25.218Z,-2.50
2019-01-25T06:21:58.245Z,-2.50
2019-01-25T06:22:31.347Z,-2.50
2019-01-25T06:23:04.396Z,-2.44
2019-01-25T06:23:37.531Z,-2.50
2019-01-25T06:24:10.624Z,-2.50
2019-01-25T06:24:47.186Z,-2.50
2019-01-25T06:25:20.187Z,-2.50
2019-01-25T06:25:55.718Z,-2.50
2019-01-25T06:26:28.848Z,-2.50
2019-01-25T06:27:01.868Z,-2.50
2019-01-25T06:27:38.729Z,-2.50
2019-01-25T06:28:11.768Z,-2.50
2019-01-25T06:28:50.616Z,-2.44
2019-01-25T06:29:23.600Z,-2.44
2019-01-25T06:29:56.704Z,-2.44
2019-01-25T06:30:29.736Z,-2.44
2019-01-25T06:31:03.519Z,-2.44
2019-01-25T06:31:36.600Z,-2.50
2019-01-25T06:32:09.596Z,-2.50
2019-01-25T06:32:42.640Z,-2.50
2019-01-25T06:33:16.769Z,-2.50
2019-01-25T06:33:50.021Z,-2.50
2019-01-25T06:34:23.176Z,-2.50
2019-01-25T06:34:56.097Z,-2.50
2019-01-25T06:35:29.208Z,-2.50
2019-01-25T06:36:02.526Z,-2.50
2019-01-25T06:36:35.554Z,-2.50
2019-01-25T06:37:08.667Z,-2.50
2019-01-25T06:37:41.746Z,-2.50
2019-01-25T06:38:14.766Z,-2.50
2019-01-25T06:38:47.796Z,-2.50
2019-01-25T06:39:20.994Z,-2.50
2019-01-25T06:39:53.874Z,-2.50
2019-01-25T06:40:26.947Z,-2.50
2019-01-25T06:41:00.099Z,-2.50
2019-01-25T06:41:33.260Z,-2.50
2019-01-25T06:42:06.345Z,-2.50
2019-01-25T06:42:40.434Z,-2.44
2019-01-25T06:43:13.446Z,-2.44
2019-01-25T06:43:46.547Z,-2.44
2019-01-25T06:44:19.644Z,-2.44
2019-01-25T06:44:52.712Z,-2.44
2019-01-25T06:45:27.426Z,-2.44
2019-01-25T06:46:00.488Z,-2.44
2019-01-25T06:46:33.564Z,-2.44
2019-01-25T06:47:06.687Z,-2.44
2019-01-25T06:47:39.731Z,-2.44
2019-01-25T06:48:12.844Z,-2.44
2019-01-25T06:48:45.851Z,-2.37
2019-01-25T06:49:18.880Z,-2.44
2019-01-25T06:49:51.878Z,-2.44
2019-01-25T06:50:25.280Z,-2.44
2019-01-25T06:50:58.219Z,-2.44
2019-01-25T06:51:31.154Z,-2.44
2019-01-25T06:52:04.258Z,-2.44
2019-01-25T06:52:37.524Z,-2.44
2019-01-25T06:53:10.560Z,-2.37
2019-01-25T06:53:43.577Z,-2.37
2019-01-25T06:54:16.614Z,-2.37
2019-01-25T06:54:49.654Z,-2.37
2019-01-25T06:55:22.686Z,-2.37
2019-01-25T06:55:55.578Z,-2.37
2019-01-25T06:56:28.618Z,-2.44
2019-01-25T06:57:04.600Z,-2.44
2019-01-25T06:57:46.792Z,-2.44
2019-01-25T06:58:27.988Z,-2.44
2019-01-25T06:59:12.084Z,-2.44
2019-01-25T06:59:45.044Z,-2.44
2019-01-25T07:00:19.878Z,-2.44
2019-01-25T07:01:21.661Z,-2.44
2019-01-25T07:02:07.622Z,-2.37
2019-01-25T07:02:41.318Z,-2.44
2019-01-25T07:03:14.386Z,-2.44
2019-01-25T07:03:47.522Z,-2.37
2019-01-25T07:04:20.550Z,-2.37
2019-01-25T07:04:53.547Z,-2.37
2019-01-25T07:05:26.560Z,-2.37
2019-01-25T07:05:59.557Z,-2.37
2019-01-25T07:06:32.524Z,-2.37
2019-01-25T07:07:09.664Z,-2.37
2019-01-25T07:07:43.289Z,-2.31
2019-01-25T07:08:17.201Z,-2.37
2019-01-25T07:08:50.234Z,-2.31
2019-01-25T07:09:23.255Z,-2.31
2019-01-25T07:09:57.318Z,-2.31
2019-01-25T07:10:30.344Z,-2.31
2019-01-25T07:11:04.850Z,-2.37
2019-01-25T07:11:42.134Z,-2.37
2019-01-25T07:12:12.987Z,-2.37
2019-01-25T07:12:46.036Z,-2.37
2019-01-25T07:13:19.044Z,-2.37
2019-01-25T07:13:52.075Z,-2.37